sensor_id;sensor_type;location;lat;lon;timestamp;P1;durP1;ratioP1;P2;durP2;ratioP2
14732;SDS011;7457;50.960;6.830;2023-11-19T00:02:21;1.05;;;0.90;;
14732;SDS011;7457;50.960;6.830;2023-11-19T00:04:47;1.92;;;1.00;;
14732;SDS011;7457;50.960;6.830;2023-11-19T00:07:13;1.00;;;1.00;;
14732;SDS011;7457;50.960;6.830;2023-11-19T00:09:39;3.63;;;1.27;;
14732;SDS011;7457;50.960;6.830;2023-11-19T00:12:05;1.20;;;1.10;;
14732;SDS011;7457;50.960;6.830;2023-11-19T00:14:32;1.67;;;1.00;;
14732;SDS011;7457;50.960;6.830;2023-11-19T00:17:00;1.95;;;1.20;;
14732;SDS011;7457;50.960;6.830;2023-11-19T00:19:26;1.40;;;1.05;;
14732;SDS011;7457;50.960;6.830;2023-11-19T00:21:52;1.13;;;1.02;;
14732;SDS011;7457;50.960;6.830;2023-11-19T00:24:18;0.82;;;0.73;;
14732;SDS011;7457;50.960;6.830;2023-11-19T00:26:43;0.70;;;0.70;;
14732;SDS011;7457;50.960;6.830;2023-11-19T00:29:09;0.80;;;0.80;;
14732;SDS011;7457;50.960;6.830;2023-11-19T00:31:35;1.45;;;0.63;;
14732;SDS011;7457;50.960;6.830;2023-11-19T00:34:01;1.92;;;0.70;;
14732;SDS011;7457;50.960;6.830;2023-11-19T00:36:27;1.08;;;0.73;;
14732;SDS011;7457;50.960;6.830;2023-11-19T00:38:53;0.38;;;0.38;;
14732;SDS011;7457;50.960;6.830;2023-11-19T00:41:19;0.52;;;0.50;;
14732;SDS011;7457;50.960;6.830;2023-11-19T00:43:45;0.47;;;0.40;;
14732;SDS011;7457;50.960;6.830;2023-11-19T00:46:11;0.43;;;0.38;;
14732;SDS011;7457;50.960;6.830;2023-11-19T00:48:38;0.40;;;0.40;;
14732;SDS011;7457;50.960;6.830;2023-11-19T00:51:04;0.57;;;0.57;;
14732;SDS011;7457;50.960;6.830;2023-11-19T00:53:30;1.00;;;0.50;;
14732;SDS011;7457;50.960;6.830;2023-11-19T00:55:57;1.80;;;0.55;;
14732;SDS011;7457;50.960;6.830;2023-11-19T00:58:22;0.80;;;0.80;;
14732;SDS011;7457;50.960;6.830;2023-11-19T01:00:48;0.50;;;0.50;;
14732;SDS011;7457;50.960;6.830;2023-11-19T01:03:14;0.40;;;0.40;;
14732;SDS011;7457;50.960;6.830;2023-11-19T01:05:40;1.00;;;0.70;;
14732;SDS011;7457;50.960;6.830;2023-11-19T01:08:06;1.08;;;0.60;;
14732;SDS011;7457;50.960;6.830;2023-11-19T01:10:33;1.50;;;0.60;;
14732;SDS011;7457;50.960;6.830;2023-11-19T01:12:59;0.82;;;0.60;;
14732;SDS011;7457;50.960;6.830;2023-11-19T01:15:24;1.35;;;0.55;;
14732;SDS011;7457;50.960;6.830;2023-11-19T01:17:50;0.52;;;0.52;;
14732;SDS011;7457;50.960;6.830;2023-11-19T01:20:16;0.80;;;0.60;;
14732;SDS011;7457;50.960;6.830;2023-11-19T01:22:42;0.77;;;0.73;;
14732;SDS011;7457;50.960;6.830;2023-11-19T01:25:08;1.08;;;0.80;;
14732;SDS011;7457;50.960;6.830;2023-11-19T01:27:34;0.60;;;0.60;;
14732;SDS011;7457;50.960;6.830;2023-11-19T01:30:03;1.17;;;0.77;;
14732;SDS011;7457;50.960;6.830;2023-11-19T01:32:30;1.00;;;0.80;;
14732;SDS011;7457;50.960;6.830;2023-11-19T01:34:56;1.35;;;1.00;;
14732;SDS011;7457;50.960;6.830;2023-11-19T01:37:22;2.30;;;1.38;;
14732;SDS011;7457;50.960;6.830;2023-11-19T01:39:48;1.95;;;1.08;;
14732;SDS011;7457;50.960;6.830;2023-11-19T01:42:13;1.05;;;1.00;;
14732;SDS011;7457;50.960;6.830;2023-11-19T01:44:40;4.85;;;1.10;;
14732;SDS011;7457;50.960;6.830;2023-11-19T01:47:06;1.30;;;1.20;;
14732;SDS011;7457;50.960;6.830;2023-11-19T01:49:32;1.42;;;1.33;;
14732;SDS011;7457;50.960;6.830;2023-11-19T01:51:58;3.30;;;1.40;;
14732;SDS011;7457;50.960;6.830;2023-11-19T01:54:24;2.55;;;1.48;;
14732;SDS011;7457;50.960;6.830;2023-11-19T01:56:50;1.70;;;1.40;;
14732;SDS011;7457;50.960;6.830;2023-11-19T01:59:18;4.47;;;2.10;;
14732;SDS011;7457;50.960;6.830;2023-11-19T02:01:51;2.63;;;2.10;;
14732;SDS011;7457;50.960;6.830;2023-11-19T02:04:17;3.00;;;1.42;;
14732;SDS011;7457;50.960;6.830;2023-11-19T02:06:43;4.07;;;1.40;;
14732;SDS011;7457;50.960;6.830;2023-11-19T02:09:11;2.40;;;1.65;;
14732;SDS011;7457;50.960;6.830;2023-11-19T02:11:39;4.88;;;1.50;;
14732;SDS011;7457;50.960;6.830;2023-11-19T02:14:05;3.10;;;1.60;;
14732;SDS011;7457;50.960;6.830;2023-11-19T02:16:31;4.20;;;1.67;;
14732;SDS011;7457;50.960;6.830;2023-11-19T02:18:57;4.35;;;1.60;;
14732;SDS011;7457;50.960;6.830;2023-11-19T02:21:23;4.55;;;1.52;;
14732;SDS011;7457;50.960;6.830;2023-11-19T02:23:49;5.78;;;1.83;;
14732;SDS011;7457;50.960;6.830;2023-11-19T02:26:21;3.13;;;1.90;;
14732;SDS011;7457;50.960;6.830;2023-11-19T02:28:54;2.97;;;1.73;;
14732;SDS011;7457;50.960;6.830;2023-11-19T02:31:20;5.53;;;1.90;;
14732;SDS011;7457;50.960;6.830;2023-11-19T02:33:45;4.47;;;2.30;;
14732;SDS011;7457;50.960;6.830;2023-11-19T02:36:11;4.55;;;1.70;;
14732;SDS011;7457;50.960;6.830;2023-11-19T02:38:37;4.22;;;1.98;;
14732;SDS011;7457;50.960;6.830;2023-11-19T02:41:03;3.83;;;1.52;;
14732;SDS011;7457;50.960;6.830;2023-11-19T02:43:32;5.72;;;1.90;;
14732;SDS011;7457;50.960;6.830;2023-11-19T02:46:02;3.53;;;1.38;;
14732;SDS011;7457;50.960;6.830;2023-11-19T02:48:33;5.72;;;1.85;;
14732;SDS011;7457;50.960;6.830;2023-11-19T02:51:00;7.70;;;2.10;;
14732;SDS011;7457;50.960;6.830;2023-11-19T02:53:28;5.32;;;2.10;;
14732;SDS011;7457;50.960;6.830;2023-11-19T02:55:54;3.35;;;1.55;;
14732;SDS011;7457;50.960;6.830;2023-11-19T02:58:26;4.93;;;2.00;;
14732;SDS011;7457;50.960;6.830;2023-11-19T03:00:53;7.78;;;2.38;;
14732;SDS011;7457;50.960;6.830;2023-11-19T03:03:26;7.32;;;2.13;;
14732;SDS011;7457;50.960;6.830;2023-11-19T03:06:03;4.15;;;1.90;;
14732;SDS011;7457;50.960;6.830;2023-11-19T03:08:34;7.80;;;2.15;;
14732;SDS011;7457;50.960;6.830;2023-11-19T03:11:00;5.80;;;2.05;;
14732;SDS011;7457;50.960;6.830;2023-11-19T03:13:27;6.47;;;2.50;;
14732;SDS011;7457;50.960;6.830;2023-11-19T03:15:52;5.13;;;1.75;;
14732;SDS011;7457;50.960;6.830;2023-11-19T03:18:19;6.20;;;2.42;;
14732;SDS011;7457;50.960;6.830;2023-11-19T03:20:46;7.07;;;1.90;;
14732;SDS011;7457;50.960;6.830;2023-11-19T03:23:11;7.63;;;2.38;;
14732;SDS011;7457;50.960;6.830;2023-11-19T03:25:37;7.60;;;2.22;;
14732;SDS011;7457;50.960;6.830;2023-11-19T03:28:03;8.15;;;2.47;;
14732;SDS011;7457;50.960;6.830;2023-11-19T03:30:29;9.32;;;2.30;;
14732;SDS011;7457;50.960;6.830;2023-11-19T03:32:56;7.00;;;2.25;;
14732;SDS011;7457;50.960;6.830;2023-11-19T03:35:22;10.75;;;2.40;;
14732;SDS011;7457;50.960;6.830;2023-11-19T03:37:49;6.40;;;2.17;;
14732;SDS011;7457;50.960;6.830;2023-11-19T03:40:15;7.32;;;2.65;;
14732;SDS011;7457;50.960;6.830;2023-11-19T03:42:41;10.13;;;2.67;;
14732;SDS011;7457;50.960;6.830;2023-11-19T03:45:07;7.50;;;2.67;;
14732;SDS011;7457;50.960;6.830;2023-11-19T03:47:36;9.85;;;3.28;;
14732;SDS011;7457;50.960;6.830;2023-11-19T03:50:02;5.35;;;2.42;;
14732;SDS011;7457;50.960;6.830;2023-11-19T03:52:28;8.32;;;2.30;;
14732;SDS011;7457;50.960;6.830;2023-11-19T03:54:54;8.68;;;2.72;;
14732;SDS011;7457;50.960;6.830;2023-11-19T03:57:21;11.98;;;2.92;;
14732;SDS011;7457;50.960;6.830;2023-11-19T03:59:47;6.85;;;2.88;;
14732;SDS011;7457;50.960;6.830;2023-11-19T04:02:13;17.25;;;3.05;;
14732;SDS011;7457;50.960;6.830;2023-11-19T04:04:38;8.48;;;2.83;;
14732;SDS011;7457;50.960;6.830;2023-11-19T04:07:04;9.52;;;2.60;;
14732;SDS011;7457;50.960;6.830;2023-11-19T04:09:30;11.18;;;2.55;;
14732;SDS011;7457;50.960;6.830;2023-11-19T04:11:57;8.02;;;2.10;;
14732;SDS011;7457;50.960;6.830;2023-11-19T04:14:23;10.27;;;2.80;;
14732;SDS011;7457;50.960;6.830;2023-11-19T04:16:49;9.15;;;2.22;;
14732;SDS011;7457;50.960;6.830;2023-11-19T04:19:16;6.30;;;2.33;;
14732;SDS011;7457;50.960;6.830;2023-11-19T04:21:42;10.00;;;2.78;;
14732;SDS011;7457;50.960;6.830;2023-11-19T04:24:08;10.80;;;2.33;;
14732;SDS011;7457;50.960;6.830;2023-11-19T04:26:39;12.52;;;3.30;;
14732;SDS011;7457;50.960;6.830;2023-11-19T04:29:11;7.72;;;2.88;;
14732;SDS011;7457;50.960;6.830;2023-11-19T04:31:37;11.13;;;2.83;;
14732;SDS011;7457;50.960;6.830;2023-11-19T04:34:04;13.82;;;2.88;;
14732;SDS011;7457;50.960;6.830;2023-11-19T04:36:31;13.55;;;3.15;;
14732;SDS011;7457;50.960;6.830;2023-11-19T04:38:58;16.20;;;3.15;;
14732;SDS011;7457;50.960;6.830;2023-11-19T04:41:24;12.60;;;2.88;;
14732;SDS011;7457;50.960;6.830;2023-11-19T04:43:52;14.73;;;4.28;;
14732;SDS011;7457;50.960;6.830;2023-11-19T04:46:18;13.90;;;2.78;;
14732;SDS011;7457;50.960;6.830;2023-11-19T04:48:44;14.98;;;3.33;;
14732;SDS011;7457;50.960;6.830;2023-11-19T04:51:09;11.30;;;3.10;;
14732;SDS011;7457;50.960;6.830;2023-11-19T04:53:35;9.20;;;2.58;;
14732;SDS011;7457;50.960;6.830;2023-11-19T04:56:01;11.52;;;3.45;;
14732;SDS011;7457;50.960;6.830;2023-11-19T04:58:33;9.50;;;2.95;;
14732;SDS011;7457;50.960;6.830;2023-11-19T05:01:00;12.95;;;2.60;;
14732;SDS011;7457;50.960;6.830;2023-11-19T05:03:26;14.07;;;3.28;;
14732;SDS011;7457;50.960;6.830;2023-11-19T05:05:52;17.63;;;2.92;;
14732;SDS011;7457;50.960;6.830;2023-11-19T05:08:19;12.23;;;3.22;;
14732;SDS011;7457;50.960;6.830;2023-11-19T05:10:44;13.13;;;3.25;;
14732;SDS011;7457;50.960;6.830;2023-11-19T05:13:10;8.75;;;2.70;;
14732;SDS011;7457;50.960;6.830;2023-11-19T05:15:36;12.63;;;3.15;;
14732;SDS011;7457;50.960;6.830;2023-11-19T05:18:01;10.23;;;2.75;;
14732;SDS011;7457;50.960;6.830;2023-11-19T05:20:27;11.07;;;2.85;;
14732;SDS011;7457;50.960;6.830;2023-11-19T05:22:52;11.25;;;3.08;;
14732;SDS011;7457;50.960;6.830;2023-11-19T05:25:18;10.68;;;2.70;;
14732;SDS011;7457;50.960;6.830;2023-11-19T05:27:45;9.85;;;2.80;;
14732;SDS011;7457;50.960;6.830;2023-11-19T05:30:11;10.63;;;2.95;;
14732;SDS011;7457;50.960;6.830;2023-11-19T05:32:36;10.32;;;3.00;;
14732;SDS011;7457;50.960;6.830;2023-11-19T05:35:02;9.63;;;3.17;;
14732;SDS011;7457;50.960;6.830;2023-11-19T05:37:28;11.90;;;4.00;;
14732;SDS011;7457;50.960;6.830;2023-11-19T05:39:53;14.43;;;3.35;;
14732;SDS011;7457;50.960;6.830;2023-11-19T05:42:19;15.70;;;3.50;;
14732;SDS011;7457;50.960;6.830;2023-11-19T05:44:45;12.02;;;3.80;;
14732;SDS011;7457;50.960;6.830;2023-11-19T05:47:11;17.27;;;3.30;;
14732;SDS011;7457;50.960;6.830;2023-11-19T05:49:37;14.18;;;3.13;;
14732;SDS011;7457;50.960;6.830;2023-11-19T05:52:02;14.20;;;3.30;;
14732;SDS011;7457;50.960;6.830;2023-11-19T05:54:28;15.23;;;3.50;;
14732;SDS011;7457;50.960;6.830;2023-11-19T05:56:55;14.55;;;3.65;;
14732;SDS011;7457;50.960;6.830;2023-11-19T05:59:22;12.98;;;3.58;;
14732;SDS011;7457;50.960;6.830;2023-11-19T06:01:49;14.63;;;3.88;;
14732;SDS011;7457;50.960;6.830;2023-11-19T06:04:15;15.75;;;4.05;;
14732;SDS011;7457;50.960;6.830;2023-11-19T06:06:41;19.77;;;4.15;;
14732;SDS011;7457;50.960;6.830;2023-11-19T06:09:06;16.10;;;3.92;;
14732;SDS011;7457;50.960;6.830;2023-11-19T06:11:33;13.75;;;3.42;;
14732;SDS011;7457;50.960;6.830;2023-11-19T06:13:59;19.08;;;3.63;;
14732;SDS011;7457;50.960;6.830;2023-11-19T06:16:25;13.13;;;3.17;;
14732;SDS011;7457;50.960;6.830;2023-11-19T06:18:50;13.95;;;4.20;;
14732;SDS011;7457;50.960;6.830;2023-11-19T06:21:16;16.55;;;3.95;;
14732;SDS011;7457;50.960;6.830;2023-11-19T06:23:41;13.88;;;3.28;;
14732;SDS011;7457;50.960;6.830;2023-11-19T06:26:07;20.25;;;3.53;;
14732;SDS011;7457;50.960;6.830;2023-11-19T06:28:33;15.60;;;3.30;;
14732;SDS011;7457;50.960;6.830;2023-11-19T06:30:59;16.55;;;4.13;;
14732;SDS011;7457;50.960;6.830;2023-11-19T06:33:25;15.38;;;4.25;;
14732;SDS011;7457;50.960;6.830;2023-11-19T06:35:52;13.98;;;3.65;;
14732;SDS011;7457;50.960;6.830;2023-11-19T06:38:19;12.98;;;3.60;;
14732;SDS011;7457;50.960;6.830;2023-11-19T06:40:45;22.40;;;3.72;;
14732;SDS011;7457;50.960;6.830;2023-11-19T06:43:11;15.38;;;3.92;;
14732;SDS011;7457;50.960;6.830;2023-11-19T06:45:36;13.77;;;3.58;;
14732;SDS011;7457;50.960;6.830;2023-11-19T06:48:02;12.82;;;3.88;;
14732;SDS011;7457;50.960;6.830;2023-11-19T06:50:29;11.40;;;3.65;;
14732;SDS011;7457;50.960;6.830;2023-11-19T06:52:54;18.10;;;4.32;;
14732;SDS011;7457;50.960;6.830;2023-11-19T06:55:20;13.95;;;3.65;;
14732;SDS011;7457;50.960;6.830;2023-11-19T06:57:46;14.10;;;3.55;;
14732;SDS011;7457;50.960;6.830;2023-11-19T07:00:11;15.95;;;4.10;;
14732;SDS011;7457;50.960;6.830;2023-11-19T07:02:37;14.98;;;3.72;;
14732;SDS011;7457;50.960;6.830;2023-11-19T07:05:03;12.57;;;3.10;;
14732;SDS011;7457;50.960;6.830;2023-11-19T07:07:33;8.85;;;3.88;;
14732;SDS011;7457;50.960;6.830;2023-11-19T07:10:00;14.57;;;3.38;;
14732;SDS011;7457;50.960;6.830;2023-11-19T07:12:27;16.83;;;4.10;;
14732;SDS011;7457;50.960;6.830;2023-11-19T07:14:53;14.90;;;4.22;;
14732;SDS011;7457;50.960;6.830;2023-11-19T07:17:20;11.88;;;3.92;;
14732;SDS011;7457;50.960;6.830;2023-11-19T07:19:46;17.35;;;4.32;;
14732;SDS011;7457;50.960;6.830;2023-11-19T07:22:14;13.70;;;3.80;;
14732;SDS011;7457;50.960;6.830;2023-11-19T07:24:40;12.43;;;3.90;;
14732;SDS011;7457;50.960;6.830;2023-11-19T07:27:06;13.05;;;4.18;;
14732;SDS011;7457;50.960;6.830;2023-11-19T07:29:33;17.75;;;3.55;;
14732;SDS011;7457;50.960;6.830;2023-11-19T07:31:59;9.50;;;3.30;;
14732;SDS011;7457;50.960;6.830;2023-11-19T07:34:27;12.05;;;3.70;;
14732;SDS011;7457;50.960;6.830;2023-11-19T07:36:54;13.98;;;3.92;;
14732;SDS011;7457;50.960;6.830;2023-11-19T07:39:22;13.98;;;3.55;;
14732;SDS011;7457;50.960;6.830;2023-11-19T07:41:48;16.38;;;3.63;;
14732;SDS011;7457;50.960;6.830;2023-11-19T07:44:14;14.70;;;4.00;;
14732;SDS011;7457;50.960;6.830;2023-11-19T07:46:39;20.85;;;3.53;;
14732;SDS011;7457;50.960;6.830;2023-11-19T07:49:07;15.07;;;3.45;;
14732;SDS011;7457;50.960;6.830;2023-11-19T07:51:32;15.15;;;4.57;;
14732;SDS011;7457;50.960;6.830;2023-11-19T07:53:58;17.52;;;4.25;;
14732;SDS011;7457;50.960;6.830;2023-11-19T07:56:24;17.80;;;3.53;;
14732;SDS011;7457;50.960;6.830;2023-11-19T07:58:49;23.48;;;4.65;;
14732;SDS011;7457;50.960;6.830;2023-11-19T08:01:15;19.45;;;3.83;;
14732;SDS011;7457;50.960;6.830;2023-11-19T08:03:41;15.77;;;3.60;;
14732;SDS011;7457;50.960;6.830;2023-11-19T08:06:07;16.13;;;4.15;;
14732;SDS011;7457;50.960;6.830;2023-11-19T08:08:32;15.85;;;3.55;;
14732;SDS011;7457;50.960;6.830;2023-11-19T08:10:59;14.63;;;3.65;;
14732;SDS011;7457;50.960;6.830;2023-11-19T08:13:25;20.27;;;4.63;;
14732;SDS011;7457;50.960;6.830;2023-11-19T08:15:51;13.32;;;4.15;;
14732;SDS011;7457;50.960;6.830;2023-11-19T08:18:17;19.10;;;3.88;;
14732;SDS011;7457;50.960;6.830;2023-11-19T08:20:43;11.85;;;3.60;;
14732;SDS011;7457;50.960;6.830;2023-11-19T08:23:09;16.23;;;3.95;;
14732;SDS011;7457;50.960;6.830;2023-11-19T08:25:35;14.75;;;3.60;;
14732;SDS011;7457;50.960;6.830;2023-11-19T08:28:01;15.85;;;4.43;;
14732;SDS011;7457;50.960;6.830;2023-11-19T08:30:28;13.90;;;4.28;;
14732;SDS011;7457;50.960;6.830;2023-11-19T08:32:55;20.48;;;3.97;;
14732;SDS011;7457;50.960;6.830;2023-11-19T08:35:21;12.82;;;3.63;;
14732;SDS011;7457;50.960;6.830;2023-11-19T08:37:46;12.75;;;3.75;;
14732;SDS011;7457;50.960;6.830;2023-11-19T08:40:12;19.77;;;4.32;;
14732;SDS011;7457;50.960;6.830;2023-11-19T08:42:39;15.57;;;4.03;;
14732;SDS011;7457;50.960;6.830;2023-11-19T08:45:06;14.63;;;3.72;;
14732;SDS011;7457;50.960;6.830;2023-11-19T08:47:35;14.90;;;4.15;;
14732;SDS011;7457;50.960;6.830;2023-11-19T08:50:01;18.35;;;4.22;;
14732;SDS011;7457;50.960;6.830;2023-11-19T08:52:26;15.30;;;4.25;;
14732;SDS011;7457;50.960;6.830;2023-11-19T08:54:52;18.67;;;3.95;;
14732;SDS011;7457;50.960;6.830;2023-11-19T08:57:17;16.58;;;3.78;;
14732;SDS011;7457;50.960;6.830;2023-11-19T08:59:44;16.65;;;4.55;;
14732;SDS011;7457;50.960;6.830;2023-11-19T09:02:10;16.75;;;3.78;;
14732;SDS011;7457;50.960;6.830;2023-11-19T09:04:36;16.45;;;3.90;;
14732;SDS011;7457;50.960;6.830;2023-11-19T09:07:02;19.60;;;3.63;;
14732;SDS011;7457;50.960;6.830;2023-11-19T09:09:28;16.65;;;4.05;;
14732;SDS011;7457;50.960;6.830;2023-11-19T09:11:54;15.40;;;4.25;;
14732;SDS011;7457;50.960;6.830;2023-11-19T09:14:20;16.55;;;3.50;;
14732;SDS011;7457;50.960;6.830;2023-11-19T09:16:50;18.58;;;4.85;;
14732;SDS011;7457;50.960;6.830;2023-11-19T09:19:16;15.52;;;4.82;;
14732;SDS011;7457;50.960;6.830;2023-11-19T09:21:42;19.27;;;4.63;;
14732;SDS011;7457;50.960;6.830;2023-11-19T09:24:08;15.90;;;3.70;;
14732;SDS011;7457;50.960;6.830;2023-11-19T09:26:34;17.05;;;4.45;;
14732;SDS011;7457;50.960;6.830;2023-11-19T09:29:01;14.13;;;3.50;;
14732;SDS011;7457;50.960;6.830;2023-11-19T09:31:27;13.27;;;4.00;;
14732;SDS011;7457;50.960;6.830;2023-11-19T09:33:52;12.23;;;4.03;;
14732;SDS011;7457;50.960;6.830;2023-11-19T09:36:18;18.70;;;4.22;;
14732;SDS011;7457;50.960;6.830;2023-11-19T09:38:44;14.23;;;3.67;;
14732;SDS011;7457;50.960;6.830;2023-11-19T09:41:10;23.25;;;3.63;;
14732;SDS011;7457;50.960;6.830;2023-11-19T09:43:41;14.35;;;3.40;;
14732;SDS011;7457;50.960;6.830;2023-11-19T09:46:10;14.80;;;4.68;;
14732;SDS011;7457;50.960;6.830;2023-11-19T09:48:40;20.40;;;4.82;;
14732;SDS011;7457;50.960;6.830;2023-11-19T09:51:07;13.50;;;4.13;;
14732;SDS011;7457;50.960;6.830;2023-11-19T09:53:36;15.20;;;3.83;;
14732;SDS011;7457;50.960;6.830;2023-11-19T09:56:05;13.38;;;4.07;;
14732;SDS011;7457;50.960;6.830;2023-11-19T09:58:33;13.73;;;3.88;;
14732;SDS011;7457;50.960;6.830;2023-11-19T10:00:59;16.88;;;4.13;;
14732;SDS011;7457;50.960;6.830;2023-11-19T10:03:27;11.95;;;3.08;;
14732;SDS011;7457;50.960;6.830;2023-11-19T10:05:57;19.38;;;4.35;;
14732;SDS011;7457;50.960;6.830;2023-11-19T10:08:24;13.15;;;4.07;;
14732;SDS011;7457;50.960;6.830;2023-11-19T10:10:50;18.83;;;4.13;;
14732;SDS011;7457;50.960;6.830;2023-11-19T10:13:16;17.90;;;3.58;;
14732;SDS011;7457;50.960;6.830;2023-11-19T10:15:42;20.73;;;4.07;;
14732;SDS011;7457;50.960;6.830;2023-11-19T10:18:09;18.38;;;4.63;;
14732;SDS011;7457;50.960;6.830;2023-11-19T10:20:35;18.83;;;4.20;;
14732;SDS011;7457;50.960;6.830;2023-11-19T10:23:01;17.63;;;4.88;;
14732;SDS011;7457;50.960;6.830;2023-11-19T10:25:28;19.98;;;3.17;;
14732;SDS011;7457;50.960;6.830;2023-11-19T10:27:55;13.93;;;3.85;;
14732;SDS011;7457;50.960;6.830;2023-11-19T10:30:21;13.45;;;3.88;;
14732;SDS011;7457;50.960;6.830;2023-11-19T10:38:24;14.35;;;3.25;;
14732;SDS011;7457;50.960;6.830;2023-11-19T10:40:51;13.27;;;3.55;;
14732;SDS011;7457;50.960;6.830;2023-11-19T10:43:18;13.70;;;3.85;;
14732;SDS011;7457;50.960;6.830;2023-11-19T10:45:44;13.48;;;3.47;;
14732;SDS011;7457;50.960;6.830;2023-11-19T10:48:09;13.30;;;3.75;;
14732;SDS011;7457;50.960;6.830;2023-11-19T10:50:36;18.15;;;4.05;;
14732;SDS011;7457;50.960;6.830;2023-11-19T10:53:04;17.55;;;4.15;;
14732;SDS011;7457;50.960;6.830;2023-11-19T10:55:31;14.30;;;3.55;;
14732;SDS011;7457;50.960;6.830;2023-11-19T10:58:00;16.23;;;3.85;;
14732;SDS011;7457;50.960;6.830;2023-11-19T11:03:16;14.43;;;4.07;;
14732;SDS011;7457;50.960;6.830;2023-11-19T11:05:43;17.83;;;3.72;;
14732;SDS011;7457;50.960;6.830;2023-11-19T11:08:12;13.27;;;3.60;;
14732;SDS011;7457;50.960;6.830;2023-11-19T11:10:52;15.77;;;4.05;;
14732;SDS011;7457;50.960;6.830;2023-11-19T11:13:19;19.23;;;3.95;;
14732;SDS011;7457;50.960;6.830;2023-11-19T11:15:45;14.13;;;3.33;;
14732;SDS011;7457;50.960;6.830;2023-11-19T11:18:12;14.60;;;3.40;;
14732;SDS011;7457;50.960;6.830;2023-11-19T11:20:38;14.02;;;3.67;;
14732;SDS011;7457;50.960;6.830;2023-11-19T11:31:39;14.75;;;3.80;;
14732;SDS011;7457;50.960;6.830;2023-11-19T11:35:17;14.65;;;3.42;;
14732;SDS011;7457;50.960;6.830;2023-11-19T11:37:30;11.60;;;3.08;;
14732;SDS011;7457;50.960;6.830;2023-11-19T11:40:01;9.38;;;3.15;;
14732;SDS011;7457;50.960;6.830;2023-11-19T11:42:35;14.70;;;3.15;;
14732;SDS011;7457;50.960;6.830;2023-11-19T11:45:14;13.13;;;3.72;;
14732;SDS011;7457;50.960;6.830;2023-11-19T11:55:34;15.20;;;3.17;;
14732;SDS011;7457;50.960;6.830;2023-11-19T11:58:05;17.45;;;3.00;;
14732;SDS011;7457;50.960;6.830;2023-11-19T12:00:37;12.88;;;3.55;;
14732;SDS011;7457;50.960;6.830;2023-11-19T12:03:07;9.23;;;2.58;;
14732;SDS011;7457;50.960;6.830;2023-11-19T12:05:34;13.30;;;2.92;;
14732;SDS011;7457;50.960;6.830;2023-11-19T12:08:05;11.98;;;3.45;;
14732;SDS011;7457;50.960;6.830;2023-11-19T12:10:36;7.20;;;2.72;;
14732;SDS011;7457;50.960;6.830;2023-11-19T12:13:07;9.48;;;3.42;;
14732;SDS011;7457;50.960;6.830;2023-11-19T12:15:44;9.77;;;2.60;;
14732;SDS011;7457;50.960;6.830;2023-11-19T12:18:19;12.35;;;3.17;;
14732;SDS011;7457;50.960;6.830;2023-11-19T12:20:46;12.35;;;3.53;;
14732;SDS011;7457;50.960;6.830;2023-11-19T12:23:11;11.43;;;3.25;;
14732;SDS011;7457;50.960;6.830;2023-11-19T12:25:37;12.13;;;3.35;;
14732;SDS011;7457;50.960;6.830;2023-11-19T12:28:03;14.02;;;3.40;;
14732;SDS011;7457;50.960;6.830;2023-11-19T12:30:29;13.98;;;3.28;;
14732;SDS011;7457;50.960;6.830;2023-11-19T12:32:55;13.50;;;3.30;;
14732;SDS011;7457;50.960;6.830;2023-11-19T12:35:20;12.05;;;3.63;;
14732;SDS011;7457;50.960;6.830;2023-11-19T12:37:47;13.63;;;3.58;;
14732;SDS011;7457;50.960;6.830;2023-11-19T12:40:17;13.25;;;3.47;;
14732;SDS011;7457;50.960;6.830;2023-11-19T12:42:54;10.63;;;3.30;;
14732;SDS011;7457;50.960;6.830;2023-11-19T12:45:20;10.77;;;3.30;;
14732;SDS011;7457;50.960;6.830;2023-11-19T12:47:48;10.15;;;3.10;;
14732;SDS011;7457;50.960;6.830;2023-11-19T12:50:15;9.27;;;2.70;;
14732;SDS011;7457;50.960;6.830;2023-11-19T12:53:03;9.98;;;3.08;;
14732;SDS011;7457;50.960;6.830;2023-11-19T12:55:29;9.43;;;2.83;;
14732;SDS011;7457;50.960;6.830;2023-11-19T12:57:55;12.25;;;2.97;;
14732;SDS011;7457;50.960;6.830;2023-11-19T13:00:23;5.95;;;2.58;;
14732;SDS011;7457;50.960;6.830;2023-11-19T13:02:53;9.48;;;2.97;;
14732;SDS011;7457;50.960;6.830;2023-11-19T13:05:23;13.32;;;3.50;;
14732;SDS011;7457;50.960;6.830;2023-11-19T13:07:51;11.80;;;3.00;;
14732;SDS011;7457;50.960;6.830;2023-11-19T13:10:23;15.68;;;3.05;;
14732;SDS011;7457;50.960;6.830;2023-11-19T13:15:28;11.00;;;3.22;;
14732;SDS011;7457;50.960;6.830;2023-11-19T13:17:54;11.30;;;3.10;;
14732;SDS011;7457;50.960;6.830;2023-11-19T13:20:20;17.17;;;3.60;;
14732;SDS011;7457;50.960;6.830;2023-11-19T13:22:55;12.90;;;3.50;;
14732;SDS011;7457;50.960;6.830;2023-11-19T13:25:24;14.93;;;3.42;;
14732;SDS011;7457;50.960;6.830;2023-11-19T13:27:49;13.43;;;3.50;;
14732;SDS011;7457;50.960;6.830;2023-11-19T13:30:15;14.68;;;3.58;;
14732;SDS011;7457;50.960;6.830;2023-11-19T13:32:41;14.30;;;4.15;;
14732;SDS011;7457;50.960;6.830;2023-11-19T13:35:08;14.07;;;4.00;;
14732;SDS011;7457;50.960;6.830;2023-11-19T13:37:34;16.25;;;4.05;;
14732;SDS011;7457;50.960;6.830;2023-11-19T13:40:00;13.02;;;3.28;;
14732;SDS011;7457;50.960;6.830;2023-11-19T13:42:25;16.98;;;3.67;;
14732;SDS011;7457;50.960;6.830;2023-11-19T13:44:52;11.27;;;3.45;;
14732;SDS011;7457;50.960;6.830;2023-11-19T13:47:17;15.27;;;3.28;;
14732;SDS011;7457;50.960;6.830;2023-11-19T13:49:44;13.30;;;3.80;;
14732;SDS011;7457;50.960;6.830;2023-11-19T13:52:10;16.10;;;3.65;;
14732;SDS011;7457;50.960;6.830;2023-11-19T13:54:36;16.15;;;3.50;;
14732;SDS011;7457;50.960;6.830;2023-11-19T13:57:02;15.23;;;3.30;;
14732;SDS011;7457;50.960;6.830;2023-11-19T13:59:29;12.50;;;3.50;;
14732;SDS011;7457;50.960;6.830;2023-11-19T14:01:58;21.38;;;3.83;;
14732;SDS011;7457;50.960;6.830;2023-11-19T14:04:24;14.77;;;3.58;;
14732;SDS011;7457;50.960;6.830;2023-11-19T14:06:50;16.73;;;3.55;;
14732;SDS011;7457;50.960;6.830;2023-11-19T14:09:16;12.45;;;3.13;;
14732;SDS011;7457;50.960;6.830;2023-11-19T14:11:42;13.05;;;3.60;;
14732;SDS011;7457;50.960;6.830;2023-11-19T14:14:08;10.60;;;3.05;;
14732;SDS011;7457;50.960;6.830;2023-11-19T14:16:34;10.75;;;3.10;;
14732;SDS011;7457;50.960;6.830;2023-11-19T14:19:00;16.98;;;4.25;;
14732;SDS011;7457;50.960;6.830;2023-11-19T14:21:26;11.23;;;3.47;;
14732;SDS011;7457;50.960;6.830;2023-11-19T14:23:52;14.88;;;3.42;;
14732;SDS011;7457;50.960;6.830;2023-11-19T14:26:18;12.18;;;3.08;;
14732;SDS011;7457;50.960;6.830;2023-11-19T14:28:43;16.58;;;3.85;;
14732;SDS011;7457;50.960;6.830;2023-11-19T14:31:09;13.30;;;3.08;;
14732;SDS011;7457;50.960;6.830;2023-11-19T14:33:35;9.68;;;4.07;;
14732;SDS011;7457;50.960;6.830;2023-11-19T14:36:03;9.23;;;3.15;;
14732;SDS011;7457;50.960;6.830;2023-11-19T14:38:29;17.40;;;4.38;;
14732;SDS011;7457;50.960;6.830;2023-11-19T14:40:55;12.73;;;4.50;;
14732;SDS011;7457;50.960;6.830;2023-11-19T14:43:20;9.90;;;3.03;;
14732;SDS011;7457;50.960;6.830;2023-11-19T14:45:46;9.63;;;3.35;;
14732;SDS011;7457;50.960;6.830;2023-11-19T14:48:12;9.55;;;2.80;;
14732;SDS011;7457;50.960;6.830;2023-11-19T14:50:37;10.18;;;3.65;;
14732;SDS011;7457;50.960;6.830;2023-11-19T14:53:03;12.10;;;2.60;;
14732;SDS011;7457;50.960;6.830;2023-11-19T14:55:28;7.75;;;3.05;;
14732;SDS011;7457;50.960;6.830;2023-11-19T14:57:54;9.90;;;2.58;;
14732;SDS011;7457;50.960;6.830;2023-11-19T15:00:21;11.85;;;2.95;;
14732;SDS011;7457;50.960;6.830;2023-11-19T15:02:47;7.90;;;2.55;;
14732;SDS011;7457;50.960;6.830;2023-11-19T15:05:13;10.27;;;2.95;;
14732;SDS011;7457;50.960;6.830;2023-11-19T15:07:38;8.18;;;2.60;;
14732;SDS011;7457;50.960;6.830;2023-11-19T15:10:05;15.25;;;2.58;;
14732;SDS011;7457;50.960;6.830;2023-11-19T15:12:38;9.30;;;2.90;;
14732;SDS011;7457;50.960;6.830;2023-11-19T15:15:08;11.68;;;3.10;;
14732;SDS011;7457;50.960;6.830;2023-11-19T15:17:40;8.07;;;2.80;;
14732;SDS011;7457;50.960;6.830;2023-11-19T15:20:06;12.95;;;3.13;;